Springfield, MO

1:43 AM CST on March 02, 2015 (GMT -0600)
Southview Estates | Change Station
CLOSE
Current Station
Personal Weather Station
Location: Springfield, MO
Elevation: 1191 ft
Nearby Weather Stations

Elev 1191 ft 37.12 °N, 93.33 °W | Updated 3 minutes ago

Partly Cloudy
Partly Cloudy
21.3 °F
Feels Like 21 °F
N
0.0
Wind Variable Wind from North
Gusts 0.0 mph

Today
High -- | Low -- °F
--% Chance of Precip.
Yesterday
High -- | Low -- °F
Precip. -- in
6:43 AM 6:08 PM
Waxing Gibbous, 90% visible
Pressure 30.50 in
Visibility 9.0 miles
Clouds Clear
Windchill 21 °F
Dew Point 17 °F
Humidity 82%
Rainfall 0.00 in
Snow Depth Not available.
UV 0 out of 12
Pollen .60 out of 12
Air Quality Not available.
Flu Activity Not available.
METAR KSGF 020652Z 07004KT 9SM CLR M04/M07 A3045 RMK AO2 SLP326 T10441072 $

More Conditions Fewer Conditions

Pressure 30.50 in
Visibility 9.0 miles
Clouds Clear
Windchill 21 °F
Dew Point 17 °F
Humidity 82%
Rainfall 0.00 in
Snow Depth Not available.
UV 0 out of 12
Pollen .60 out of 12
Air Quality Not available.
Flu Activity Not available.
METAR KSGF 020652Z 07004KT 9SM CLR M04/M07 A3045 RMK AO2 SLP326 T10441072 $

More Conditions Fewer Conditions

10-Day Weather Forecast

Almanac

Astronomy

Mar. 02, 2015 Rise Set
Actual Time
Civil Twilight
Nautical Twilight
Astronomical Twilight
Moon
Length of Visible Light
Length of Day
Tomorrow will be .
, % of the Moon is Illuminated

Today's Extremes

State Highs State Lows

Community

WunderPhotos

Upload Photos

1,801,739 photos uploaded!

WunderBlogs® & News

Nearby

Air Quality

  Air Quality AQ Index Pollutant
Not available.

Snow Depth

Station Depth Elevation

Earthquake Activity

City Distance Mag. Time & Date
Minimum magnitude displayed is 2.5.

Coastal Water Temperatures

Place Temperature

Nearby Weather Stations